Bf Esperanza — V2BR8 — position and weather

sailwx.info

Track history (hours):
 
Tides and Currents Weather Stations Pressure Air Temp Water Temp Dewpoint Dewpoint Depression Visibility Wind Speed Wind Dir Waves Ship Positions

Bf Esperanza

Last reported at 2015-May-23 11:33 UTC. Time now 2015-May-23 11:56 UTC.
Position N 43°21' E 005°20'.

Length 135 m; draft 7.2 m.

Type: Ship (hazmat cat A). MMSI: 304907000.

Date/timePositionNaut miles runAvg speedWind from/ knotsBaromVisibWave heightAir tempDewpointWater temp
2015-May-23 11:33N 43°21' E 005°20'0 0.0
2015-May-23 10:33N 43°21' E 005°20'0 0.0
2015-May-23 09:33N 43°21' E 005°20'0 0.0
2015-May-23 08:32N 43°21' E 005°20'0 0.0
2015-May-23 07:33N 43°21' E 005°20'8 7.8
2015-May-23 06:31N 43°16' E 005°11'7512.6
2015-May-23 00:33N 42°58' E 006°51'5716.3
2015-May-22 21:05N 43°31' E 007°55'816.3
2015-May-22 20:33N 43°36' E 008°04'1616.1
2015-May-22 19:33N 43°45' E 008°23'1615.7
2015-May-22 18:33N 43°54' E 008°40'1514.8
2015-May-22 17:33N 44°07' E 008°50'1414.4
2015-May-22 16:33N 44°21' E 008°57'4 3.9
2015-May-22 15:27N 44°24' E 008°54'0 0.0
2015-May-22 14:33N 44°24' E 008°54'0 0.0
2015-May-22 13:30N 44°24' E 008°54'0 0.0
2015-May-22 12:32N 44°24' E 008°54'0 0.0
2015-May-22 11:29N 44°24' E 008°54'0 0.0
2015-May-22 10:28N 44°24' E 008°54'0 0.0
2015-May-22 09:31N 44°24' E 008°54'0 0.0
2015-May-22 08:34N 44°24' E 008°54'0 0.0
2015-May-22 07:33N 44°24' E 008°54'0 0.0
2015-May-22 06:30N 44°24' E 008°54'0 0.0
2015-May-22 05:32N 44°24' E 008°54'0 0.0
2015-May-22 04:32N 44°24' E 008°54'0 0.0
2015-May-22 03:31N 44°24' E 008°54'0 0.0
2015-May-22 02:31N 44°24' E 008°54'0 0.0
2015-May-22 01:33N 44°24' E 008°54'0 0.0
2015-May-22 00:33N 44°24' E 008°54'0 0.0
2015-May-21 23:33N 44°24' E 008°54'0 0.3
2015-May-21 22:33N 44°24' E 008°54'5 5.3
2015-May-21 21:33N 44°20' E 008°59'1111.0
2015-May-21 20:33N 44°09' E 008°54'2 1.6
2015-May-21 19:33N 44°11' E 008°55'1 1.2
2015-May-21 18:33N 44°12' E 008°56'2 1.6
2015-May-21 17:33N 44°13' E 008°56'2 1.9
2015-May-21 16:33N 44°15' E 008°56'6 6.3
2015-May-21 15:33N 44°18' E 009°04'1 1.0
2015-May-21 14:33N 44°17' E 009°03'2 2.1
2015-May-21 13:33N 44°15' E 009°03'1313.3
2015-May-21 12:33N 44°02' E 009°08'1313.2
2015-May-21 11:33N 43°50' E 009°15'1313.0
2015-May-21 10:33N 43°38' E 009°21'1312.8
2015-May-21 09:33N 43°26' E 009°27'1312.8
2015-May-21 08:33N 43°14' E 009°33'31713.8
2015-May-20 09:29N 38°10' E 011°37'1916.8
2015-May-20 08:23N 37°53' E 011°47'1316.3
2015-May-20 07:33N 37°42' E 011°56'1716.9
2015-May-20 06:33N 37°30' E 012°10'1616.5
2015-May-20 05:33N 37°18' E 012°24'1716.9
2015-May-20 04:33N 37°05' E 012°39'1716.8
2015-May-20 03:33N 36°53' E 012°53'1717.1
2015-May-20 02:33N 36°40' E 013°08'1817.6
2015-May-20 01:34N 36°27' E 013°22'1717.2
2015-May-20 00:33N 36°14' E 013°36'1716.8
2015-May-19 23:33N 36°02' E 013°51'1716.8
2015-May-19 22:33N 35°53' E 014°08'1716.8
2015-May-19 21:33N 35°46' E 014°27'5 5.4
2015-May-19 20:33N 35°49' E 014°32'0 0.0
2015-May-19 19:08N 35°49' E 014°32'0 0.0
2015-May-19 13:09N 35°49' E 014°32'0 0.0
2015-May-19 12:32N 35°49' E 014°32'0 0.0
2015-May-19 11:32N 35°49' E 014°32'0 0.0
2015-May-19 10:26N 35°49' E 014°32'0 0.0
2015-May-19 08:13N 35°49' E 014°32'0 0.0
2015-May-19 06:18N 35°49' E 014°32'0 0.0
2015-May-19 05:26N 35°49' E 014°32'0 0.0
2015-May-19 03:22N 35°49' E 014°32'0 0.0
2015-May-18 18:31N 35°49' E 014°32'8 2.7
2015-May-18 15:32N 35°44' E 014°40'1 1.3
2015-May-18 14:30N 35°45' E 014°41'3 2.5
2015-May-18 13:30N 35°45' E 014°38'1212.9
2015-May-18 12:33N 35°45' E 014°23'1414.2
2015-May-18 11:33N 35°53' E 014°08'  
2015-May-15 21:24N 35°60' W 005°09'1517.5
2015-May-15 20:33N 35°57' W 005°27'4 0.3
2015-May-15 05:31N 35°54' W 005°29'2 0.4
2015-May-15 01:09N 35°55' W 005°30'3 5.6
2015-May-15 00:34N 35°58' W 005°29'9 9.1
2015-May-14 23:33N 36°02' W 005°18'7 6.6
2015-May-14 22:33N 35°58' W 005°25'4 3.6
2015-May-14 21:34N 35°59' W 005°29'2 2.2
2015-May-14 20:33N 35°58' W 005°26'2 2.0
2015-May-14 19:33N 35°59' W 005°29'9 9.3
2015-May-14 18:33N 36°02' W 005°18'13 3.9
2015-May-14 15:19N 36°03' W 005°02'1012.8
2015-May-14 14:33N 36°03' W 005°14'7512.3
2015-May-14 08:29N 36°09' W 003°42'1413.4
2015-May-14 07:26N 36°09' W 003°24'1112.5
2015-May-14 06:33N 36°08' W 003°11'8 8.4
2015-May-14 05:33N 36°10' W 003°00'1515.0
2015-May-14 04:33N 36°08' W 002°42'1514.7
2015-May-14 03:33N 36°06' W 002°24'7 6.7
2015-May-14 02:33N 36°05' W 002°16'0 0.4
2015-May-14 01:33N 36°05' W 002°16'0 0.4
2015-May-14 00:32N 36°05' W 002°17'0 0.2
2015-May-13 23:33N 36°05' W 002°17'0 0.2
2015-May-13 22:33N 36°05' W 002°16'0 0.3
2015-May-13 21:33N 36°05' W 002°16'1 0.5
2015-May-13 20:33N 36°04' W 002°16'1 0.6
2015-May-13 19:33N 36°04' W 002°15'9 8.7
2015-May-13 18:33N 36°02' W 002°04'1514.9
2015-May-13 17:33N 35°60' W 001°46'1514.8
2015-May-13 16:33N 35°57' W 001°28'1514.7
2015-May-13 15:33N 35°55' W 001°10'1413.8
2015-May-13 14:33N 35°53' W 000°53'1312.5
2015-May-13 13:33N 35°50' W 000°39'7 6.2
2015-May-13 12:27N 35°43' W 000°38'  
Track history (hours):
 
Tides and Currents Weather Stations Pressure Air Temp Water Temp Dewpoint Dewpoint Depression Visibility Wind Speed Wind Dir Waves Ship Positions

Bf Esperanza

Last reported at 2015-May-23 11:33 UTC. Time now 2015-May-23 11:56 UTC.
Position N 43°21' E 005°20'.

Length 135 m; draft 7.2 m.

Type: Ship (hazmat cat A). MMSI: 304907000.

Date/timePositionNaut miles runAvg speedWind from/ knotsBaromVisibWave heightAir tempDewpointWater temp
2015-May-23 11:33N 43°21' E 005°20'0 0.0
2015-May-23 10:33N 43°21' E 005°20'0 0.0
2015-May-23 09:33N 43°21' E 005°20'0 0.0
2015-May-23 08:32N 43°21' E 005°20'0 0.0
2015-May-23 07:33N 43°21' E 005°20'8 7.8
2015-May-23 06:31N 43°16' E 005°11'7512.6
2015-May-23 00:33N 42°58' E 006°51'5716.3
2015-May-22 21:05N 43°31' E 007°55'816.3
2015-May-22 20:33N 43°36' E 008°04'1616.1
2015-May-22 19:33N 43°45' E 008°23'1615.7
2015-May-22 18:33N 43°54' E 008°40'1514.8
2015-May-22 17:33N 44°07' E 008°50'1414.4
2015-May-22 16:33N 44°21' E 008°57'4 3.9
2015-May-22 15:27N 44°24' E 008°54'0 0.0
2015-May-22 14:33N 44°24' E 008°54'0 0.0
2015-May-22 13:30N 44°24' E 008°54'0 0.0
2015-May-22 12:32N 44°24' E 008°54'0 0.0
2015-May-22 11:29N 44°24' E 008°54'0 0.0
2015-May-22 10:28N 44°24' E 008°54'0 0.0
2015-May-22 09:31N 44°24' E 008°54'0 0.0
2015-May-22 08:34N 44°24' E 008°54'0 0.0
2015-May-22 07:33N 44°24' E 008°54'0 0.0
2015-May-22 06:30N 44°24' E 008°54'0 0.0
2015-May-22 05:32N 44°24' E 008°54'0 0.0
2015-May-22 04:32N 44°24' E 008°54'0 0.0
2015-May-22 03:31N 44°24' E 008°54'0 0.0
2015-May-22 02:31N 44°24' E 008°54'0 0.0
2015-May-22 01:33N 44°24' E 008°54'0 0.0
2015-May-22 00:33N 44°24' E 008°54'0 0.0
2015-May-21 23:33N 44°24' E 008°54'0 0.3
2015-May-21 22:33N 44°24' E 008°54'5 5.3
2015-May-21 21:33N 44°20' E 008°59'1111.0
2015-May-21 20:33N 44°09' E 008°54'2 1.6
2015-May-21 19:33N 44°11' E 008°55'1 1.2
2015-May-21 18:33N 44°12' E 008°56'2 1.6
2015-May-21 17:33N 44°13' E 008°56'2 1.9
2015-May-21 16:33N 44°15' E 008°56'6 6.3
2015-May-21 15:33N 44°18' E 009°04'1 1.0
2015-May-21 14:33N 44°17' E 009°03'2 2.1
2015-May-21 13:33N 44°15' E 009°03'1313.3
2015-May-21 12:33N 44°02' E 009°08'1313.2
2015-May-21 11:33N 43°50' E 009°15'1313.0
2015-May-21 10:33N 43°38' E 009°21'1312.8
2015-May-21 09:33N 43°26' E 009°27'1312.8
2015-May-21 08:33N 43°14' E 009°33'31713.8
2015-May-20 09:29N 38°10' E 011°37'1916.8
2015-May-20 08:23N 37°53' E 011°47'1316.3
2015-May-20 07:33N 37°42' E 011°56'1716.9
2015-May-20 06:33N 37°30' E 012°10'1616.5
2015-May-20 05:33N 37°18' E 012°24'1716.9
2015-May-20 04:33N 37°05' E 012°39'1716.8
2015-May-20 03:33N 36°53' E 012°53'1717.1
2015-May-20 02:33N 36°40' E 013°08'1817.6
2015-May-20 01:34N 36°27' E 013°22'1717.2
2015-May-20 00:33N 36°14' E 013°36'1716.8
2015-May-19 23:33N 36°02' E 013°51'1716.8
2015-May-19 22:33N 35°53' E 014°08'1716.8
2015-May-19 21:33N 35°46' E 014°27'5 5.4
2015-May-19 20:33N 35°49' E 014°32'0 0.0
2015-May-19 19:08N 35°49' E 014°32'0 0.0
2015-May-19 13:09N 35°49' E 014°32'0 0.0
2015-May-19 12:32N 35°49' E 014°32'0 0.0
2015-May-19 11:32N 35°49' E 014°32'0 0.0
2015-May-19 10:26N 35°49' E 014°32'0 0.0
2015-May-19 08:13N 35°49' E 014°32'0 0.0
2015-May-19 06:18N 35°49' E 014°32'0 0.0
2015-May-19 05:26N 35°49' E 014°32'0 0.0
2015-May-19 03:22N 35°49' E 014°32'0 0.0
2015-May-18 18:31N 35°49' E 014°32'8 2.7
2015-May-18 15:32N 35°44' E 014°40'1 1.3
2015-May-18 14:30N 35°45' E 014°41'3 2.5
2015-May-18 13:30N 35°45' E 014°38'1212.9
2015-May-18 12:33N 35°45' E 014°23'1414.2
2015-May-18 11:33N 35°53' E 014°08'  
2015-May-15 21:24N 35°60' W 005°09'1517.5
2015-May-15 20:33N 35°57' W 005°27'4 0.3
2015-May-15 05:31N 35°54' W 005°29'2 0.4
2015-May-15 01:09N 35°55' W 005°30'3 5.6
2015-May-15 00:34N 35°58' W 005°29'9 9.1
2015-May-14 23:33N 36°02' W 005°18'7 6.6
2015-May-14 22:33N 35°58' W 005°25'4 3.6
2015-May-14 21:34N 35°59' W 005°29'2 2.2
2015-May-14 20:33N 35°58' W 005°26'2 2.0
2015-May-14 19:33N 35°59' W 005°29'9 9.3
2015-May-14 18:33N 36°02' W 005°18'13 3.9
2015-May-14 15:19N 36°03' W 005°02'1012.8
2015-May-14 14:33N 36°03' W 005°14'7512.3
2015-May-14 08:29N 36°09' W 003°42'1413.4
2015-May-14 07:26N 36°09' W 003°24'1112.5
2015-May-14 06:33N 36°08' W 003°11'8 8.4
2015-May-14 05:33N 36°10' W 003°00'1515.0
2015-May-14 04:33N 36°08' W 002°42'1514.7
2015-May-14 03:33N 36°06' W 002°24'7 6.7
2015-May-14 02:33N 36°05' W 002°16'0 0.4
2015-May-14 01:33N 36°05' W 002°16'0 0.4
2015-May-14 00:32N 36°05' W 002°17'0 0.2
2015-May-13 23:33N 36°05' W 002°17'0 0.2
2015-May-13 22:33N 36°05' W 002°16'0 0.3
2015-May-13 21:33N 36°05' W 002°16'1 0.5
2015-May-13 20:33N 36°04' W 002°16'1 0.6
2015-May-13 19:33N 36°04' W 002°15'9 8.7
2015-May-13 18:33N 36°02' W 002°04'1514.9
2015-May-13 17:33N 35°60' W 001°46'1514.8
2015-May-13 16:33N 35°57' W 001°28'1514.7
2015-May-13 15:33N 35°55' W 001°10'1413.8
2015-May-13 14:33N 35°53' W 000°53'1312.5
2015-May-13 13:33N 35°50' W 000°39'7 6.2
2015-May-13 12:27N 35°43' W 000°38'  

Dump ship's entire track history